Time;durP1;ratioP1;P1;durP2;ratioP2;P2;SDS_P1;SDS_P2;PMS_P1;PMS_P2;Temp;Humidity;BMP_temperature;BMP_pressure;BME280_temperature;BME280_humidity;BME280_pressure;Samples;Min_cycle;Max_cycle;Signal;HPM_P1;HPM_P2
2023/10/08 00:00:45;;;;;;;8.80;3.80;;;;;;;;;;5039098;23;20084;-87
2023/10/08 00:03:14;;;;;;;6.90;3.22;;;;;;;;;;5008081;28;20093;-88
2023/10/08 00:05:42;;;;;;;5.95;3.45;;;;;;;;;;5017345;28;20110;-88
2023/10/08 00:08:10;;;;;;;5.40;3.70;;;;;;;;;;5009170;28;20049;-87
2023/10/08 00:10:39;;;;;;;11.45;3.85;;;;;;;;;;5009313;28;20053;-88
2023/10/08 00:13:09;;;;;;;8.63;3.75;;;;;;;;;;5009195;28;20046;-88
2023/10/08 00:15:37;;;;;;;8.10;3.60;;;;;;;;;;5008881;28;20468;-88
2023/10/08 00:18:05;;;;;;;7.55;3.90;;;;;;;;;;5008782;28;20077;-88
2023/10/08 00:20:42;;;;;;;6.45;3.63;;;;;;;;;;5005459;28;20049;-88
2023/10/08 00:23:10;;;;;;;6.35;3.17;;;;;;;;;;5006813;28;20046;-88
2023/10/08 00:25:40;;;;;;;6.38;4.22;;;;;;;;;;5012047;28;20422;-88
2023/10/08 00:28:12;;;;;;;9.02;3.65;;;;;;;;;;5011528;28;20050;-87
2023/10/08 00:30:44;;;;;;;10.45;3.58;;;;;;;;;;5008777;28;20498;-88
2023/10/08 00:33:11;;;;;;;5.25;3.53;;;;;;;;;;5007836;28;20047;-87
2023/10/08 00:35:41;;;;;;;10.60;3.63;;;;;;;;;;5002218;28;20085;-88
2023/10/08 00:38:16;;;;;;;7.63;3.88;;;;;;;;;;5008929;28;20421;-88
2023/10/08 00:40:46;;;;;;;11.25;3.60;;;;;;;;;;5025593;28;20558;-88
2023/10/08 00:43:31;;;;;;;8.63;3.92;;;;;;;;;;5007221;28;20061;-87
2023/10/08 00:45:59;;;;;;;8.57;4.10;;;;;;;;;;5009401;28;20455;-88
2023/10/08 00:48:29;;;;;;;5.90;3.65;;;;;;;;;;5008346;28;20077;-88
2023/10/08 00:51:15;;;;;;;9.38;3.80;;;;;;;;;;5016368;28;20056;-88
2023/10/08 00:53:43;;;;;;;13.20;3.90;;;;;;;;;;5010604;28;20099;-88
2023/10/08 00:56:13;;;;;;;10.07;3.55;;;;;;;;;;5008576;28;20049;-88
2023/10/08 00:58:48;;;;;;;7.05;3.45;;;;;;;;;;5016710;28;20409;-88
2023/10/08 01:01:16;;;;;;;7.78;3.42;;;;;;;;;;5005824;28;20513;-88
2023/10/08 01:03:44;;;;;;;10.55;4.13;;;;;;;;;;5004846;28;20050;-88
2023/10/08 01:06:14;;;;;;;7.43;4.15;;;;;;;;;;5023491;28;20617;-88
2023/10/08 01:08:50;;;;;;;12.45;3.70;;;;;;;;;;5008474;28;20100;-88
2023/10/08 01:11:33;;;;;;;9.05;3.85;;;;;;;;;;5008140;28;20128;-87
2023/10/08 01:14:00;;;;;;;12.88;4.30;;;;;;;;;;5008251;28;20490;-87
2023/10/08 01:16:28;;;;;;;6.65;4.10;;;;;;;;;;5008389;28;20053;-88
2023/10/08 01:18:56;;;;;;;8.18;3.60;;;;;;;;;;5009008;28;20049;-88
2023/10/08 01:21:39;;;;;;;7.82;3.78;;;;;;;;;;5007514;28;20057;-88
2023/10/08 01:24:07;;;;;;;9.05;3.70;;;;;;;;;;5024648;28;20046;-88
2023/10/08 01:26:38;;;;;;;5.90;3.83;;;;;;;;;;5004194;28;20475;-87
2023/10/08 01:29:18;;;;;;;6.75;3.65;;;;;;;;;;5005322;28;20045;-88
2023/10/08 01:31:48;;;;;;;7.70;3.60;;;;;;;;;;5025159;28;20486;-87
2023/10/08 01:34:17;;;;;;;10.20;3.45;;;;;;;;;;5006023;28;20588;-88
2023/10/08 01:36:44;;;;;;;19.00;5.30;;;;;;;;;;5004601;28;20624;-87
2023/10/08 01:39:15;;;;;;;14.70;4.45;;;;;;;;;;5008109;28;20070;-87
2023/10/08 01:41:44;;;;;;;18.17;5.15;;;;;;;;;;5021959;28;20077;-86
2023/10/08 01:44:11;;;;;;;21.90;4.32;;;;;;;;;;5026224;28;20050;-86
2023/10/08 01:46:42;;;;;;;17.10;4.40;;;;;;;;;;5007543;28;20046;-86
2023/10/08 01:49:14;;;;;;;11.10;3.90;;;;;;;;;;5023991;28;20119;-87
2023/10/08 01:51:51;;;;;;;6.30;3.75;;;;;;;;;;5003947;28;20046;-86
2023/10/08 01:54:21;;;;;;;13.70;3.72;;;;;;;;;;5023830;28;20080;-87
2023/10/08 01:56:50;;;;;;;8.30;3.60;;;;;;;;;;5024778;28;20057;-87
2023/10/08 01:59:17;;;;;;;10.07;3.60;;;;;;;;;;5005591;28;20457;-88
2023/10/08 02:01:48;;;;;;;10.68;4.30;;;;;;;;;;5003226;28;20093;-85
2023/10/08 02:04:16;;;;;;;6.43;3.22;;;;;;;;;;5005683;28;20053;-87
2023/10/08 02:06:45;;;;;;;9.23;3.70;;;;;;;;;;5027265;28;20041;-87
2023/10/08 02:09:14;;;;;;;8.25;3.50;;;;;;;;;;5030999;28;20486;-87
2023/10/08 02:11:46;;;;;;;7.00;3.97;;;;;;;;;;5007263;28;20441;-88
2023/10/08 02:14:15;;;;;;;8.73;3.60;;;;;;;;;;5005532;28;20089;-86
2023/10/08 02:16:44;;;;;;;11.50;3.65;;;;;;;;;;5020792;28;20491;-87
2023/10/08 02:19:11;;;;;;;10.40;3.97;;;;;;;;;;5004829;28;20060;-87
2023/10/08 02:21:40;;;;;;;11.18;4.25;;;;;;;;;;5024010;28;20053;-87
2023/10/08 02:24:08;;;;;;;10.13;3.97;;;;;;;;;;5006460;28;20049;-85
2023/10/08 02:26:35;;;;;;;8.68;3.67;;;;;;;;;;5003447;28;20446;-88
2023/10/08 02:29:10;;;;;;;8.02;3.42;;;;;;;;;;5003706;28;20085;-86
2023/10/08 02:31:41;;;;;;;10.73;3.80;;;;;;;;;;5010092;28;20045;-87
2023/10/08 02:34:08;;;;;;;10.57;3.83;;;;;;;;;;5004669;28;20050;-87
2023/10/08 02:36:37;;;;;;;13.10;4.25;;;;;;;;;;5024584;28;20073;-87
2023/10/08 02:39:14;;;;;;;10.50;4.22;;;;;;;;;;5035703;28;20049;-87
2023/10/08 02:41:41;;;;;;;9.50;4.25;;;;;;;;;;5029261;28;20077;-86
2023/10/08 02:44:13;;;;;;;11.93;4.10;;;;;;;;;;5018522;28;20115;-87
2023/10/08 02:46:47;;;;;;;9.10;3.80;;;;;;;;;;5010141;28;20060;-87
2023/10/08 02:49:22;;;;;;;10.18;4.22;;;;;;;;;;5027732;28;20558;-88
2023/10/08 02:51:51;;;;;;;10.88;4.20;;;;;;;;;;5010067;28;20501;-87
2023/10/08 02:54:20;;;;;;;12.05;3.78;;;;;;;;;;5007789;28;20049;-87
2023/10/08 02:56:51;;;;;;;8.50;3.85;;;;;;;;;;5006831;28;20085;-87
2023/10/08 02:59:22;;;;;;;7.28;4.30;;;;;;;;;;5026504;28;20050;-86
2023/10/08 03:01:49;;;;;;;6.28;3.60;;;;;;;;;;5009030;28;20501;-87
2023/10/08 03:04:20;;;;;;;9.10;3.78;;;;;;;;;;5009775;28;20060;-87
2023/10/08 03:06:54;;;;;;;10.15;3.90;;;;;;;;;;5011908;28;20429;-87
2023/10/08 03:09:26;;;;;;;12.07;4.28;;;;;;;;;;5026782;28;20387;-87
2023/10/08 03:11:54;;;;;;;11.93;4.15;;;;;;;;;;5010089;28;20049;-87
2023/10/08 03:14:21;;;;;;;9.20;4.70;;;;;;;;;;5009885;28;20455;-88
2023/10/08 03:16:49;;;;;;;9.30;4.20;;;;;;;;;;5009443;28;20050;-87
2023/10/08 03:19:19;;;;;;;9.57;4.05;;;;;;;;;;5009921;28;20092;-87
2023/10/08 03:21:57;;;;;;;9.50;4.22;;;;;;;;;;5011603;28;20096;-86
2023/10/08 03:24:37;;;;;;;6.10;3.53;;;;;;;;;;5031828;28;20053;-87
2023/10/08 03:27:20;;;;;;;11.77;4.72;;;;;;;;;;5023762;28;20411;-89
2023/10/08 03:29:48;;;;;;;10.30;4.13;;;;;;;;;;5009575;28;20502;-88
2023/10/08 03:32:15;;;;;;;9.45;4.25;;;;;;;;;;5016041;28;20068;-88
2023/10/08 03:34:47;;;;;;;10.20;4.40;;;;;;;;;;5006103;28;20053;-88
2023/10/08 03:37:29;;;;;;;12.15;4.82;;;;;;;;;;5025364;28;20136;-88
2023/10/08 03:42:48;;;;;;;9.75;4.35;;;;;;;;;;5023322;28;20487;-88
2023/10/08 03:45:22;;;;;;;;;;;;;;;;;;5008340;28;20085;-88
2023/10/08 03:48:05;;;;;;;10.60;3.42;;;;;;;;;;5005431;28;19975;-88
2023/10/08 03:50:40;;;;;;;8.35;4.15;;;;;;;;;;5006046;28;20052;-88
2023/10/08 03:53:11;;;;;;;9.20;4.13;;;;;;;;;;5032399;28;20095;-88
2023/10/08 03:55:42;;;;;;;9.77;4.13;;;;;;;;;;5009429;28;20085;-89
2023/10/08 03:58:16;;;;;;;9.05;4.03;;;;;;;;;;5025732;28;20041;-89
2023/10/08 04:00:45;;;;;;;12.07;4.40;;;;;;;;;;5022459;28;20096;-87
2023/10/08 04:03:23;;;;;;;10.82;3.78;;;;;;;;;;5006984;28;20494;-87
2023/10/08 04:06:14;;;;;;;12.98;4.15;;;;;;;;;;5009244;28;20471;-89
2023/10/08 04:08:55;;;;;;;12.23;4.80;;;;;;;;;;5028135;28;20391;-89
2023/10/08 04:11:30;;;;;;;6.82;4.13;;;;;;;;;;5005953;28;20549;-87
2023/10/08 04:14:02;;;;;;;10.43;4.07;;;;;;;;;;5009988;28;20081;-88
2023/10/08 04:16:29;;;;;;;9.70;3.72;;;;;;;;;;5005404;28;20042;-88
2023/10/08 04:18:57;;;;;;;11.30;3.92;;;;;;;;;;5005399;28;20525;-86
2023/10/08 04:21:27;;;;;;;7.45;4.00;;;;;;;;;;5021439;28;20059;-89
2023/10/08 04:23:57;;;;;;;12.25;4.57;;;;;;;;;;5038890;28;20108;-88
2023/10/08 04:26:25;;;;;;;7.50;4.00;;;;;;;;;;5008232;28;20502;-89
2023/10/08 04:29:02;;;;;;;14.88;3.88;;;;;;;;;;5005972;28;20107;-88
2023/10/08 04:31:37;;;;;;;10.60;4.28;;;;;;;;;;5013153;28;20494;-87
2023/10/08 04:34:22;;;;;;;8.45;3.88;;;;;;;;;;5005382;28;20104;-86
2023/10/08 04:37:00;;;;;;;;;;;;;;;;;;5009012;28;20045;-88
2023/10/08 04:39:34;;;;;;;10.93;4.40;;;;;;;;;;5008744;28;19927;-87
2023/10/08 04:42:06;;;;;;;10.43;4.57;;;;;;;;;;5008146;28;20049;-87
2023/10/08 04:44:33;;;;;;;9.25;4.32;;;;;;;;;;5026506;28;20144;-87
2023/10/08 04:47:06;;;;;;;8.15;3.63;;;;;;;;;;5016771;28;20045;-87
2023/10/08 04:49:34;;;;;;;8.70;4.40;;;;;;;;;;5009493;28;20053;-87
2023/10/08 04:52:13;;;;;;;10.07;4.53;;;;;;;;;;5008293;28;20478;-88
2023/10/08 04:54:46;;;;;;;9.75;4.65;;;;;;;;;;5006505;28;20042;-88
2023/10/08 04:57:16;;;;;;;8.37;4.47;;;;;;;;;;5014786;28;20093;-87
2023/10/08 04:59:44;;;;;;;16.17;4.93;;;;;;;;;;5025310;28;20288;-88
2023/10/08 05:02:26;;;;;;;11.20;4.32;;;;;;;;;;5006133;28;20132;-87
2023/10/08 05:13:00;;;;;;;11.38;5.07;;;;;;;;;;5028210;28;20265;-87
2023/10/08 05:15:41;;;;;;;14.15;5.18;;;;;;;;;;5015836;28;20046;-87
2023/10/08 05:20:58;;;;;;;7.38;4.70;;;;;;;;;;5025061;28;20085;-87
2023/10/08 05:25:58;;;;;;;13.38;5.25;;;;;;;;;;5025109;28;20052;-86
2023/10/08 05:28:26;;;;;;;7.40;4.63;;;;;;;;;;5004297;28;20052;-87
2023/10/08 05:31:05;;;;;;;13.52;4.93;;;;;;;;;;5004188;28;20112;-87
2023/10/08 05:34:14;;;;;;;9.65;4.88;;;;;;;;;;5021566;28;20085;-86
2023/10/08 05:36:35;;;;;;;11.05;4.80;;;;;;;;;;5032314;28;20056;-87
2023/10/08 05:41:54;;;;;;;11.10;4.95;;;;;;;;;;5021379;28;20096;-86
2023/10/08 05:49:38;;;;;;;19.88;8.70;;;;;;;;;;5024781;28;20061;-86
2023/10/08 05:54:47;;;;;;;10.07;5.00;;;;;;;;;;5021450;28;20057;-88
2023/10/08 05:57:35;;;;;;;5.63;4.13;;;;;;;;;;5022874;28;20136;-86
2023/10/08 06:13:04;;;;;;;7.03;2.97;;;;;;;;;;5008031;28;20145;-88
2023/10/08 06:15:47;;;;;;;2.30;2.03;;;;;;;;;;5025401;28;20054;-90
2023/10/08 06:18:19;;;;;;;2.97;2.40;;;;;;;;;;5026743;28;20080;-87
2023/10/08 06:20:47;;;;;;;4.28;1.55;;;;;;;;;;5010897;28;20060;-86
2023/10/08 06:23:18;;;;;;;1.38;1.25;;;;;;;;;;5011164;28;20052;-87
2023/10/08 06:25:47;;;;;;;2.53;1.52;;;;;;;;;;5035971;28;20482;-87
2023/10/08 06:28:21;;;;;;;3.67;0.95;;;;;;;;;;5009394;28;20445;-88
2023/10/08 06:30:49;;;;;;;1.15;0.88;;;;;;;;;;5011976;28;20049;-86
2023/10/08 06:33:16;;;;;;;2.13;1.30;;;;;;;;;;5008804;28;20046;-86
2023/10/08 06:35:44;;;;;;;0.95;0.95;;;;;;;;;;5012465;28;20124;-87
2023/10/08 06:38:14;;;;;;;0.98;0.98;;;;;;;;;;5008045;28;20057;-86
2023/10/08 06:40:43;;;;;;;1.02;1.02;;;;;;;;;;5009642;28;20464;-86
2023/10/08 06:43:21;;;;;;;1.70;0.82;;;;;;;;;;5009621;28;20410;-86
2023/10/08 06:45:52;;;;;;;1.27;0.90;;;;;;;;;;5027217;28;20563;-87
2023/10/08 06:48:20;;;;;;;3.85;0.95;;;;;;;;;;5027187;28;20073;-85
2023/10/08 06:50:48;;;;;;;2.38;0.90;;;;;;;;;;5009636;28;20053;-87
2023/10/08 06:53:17;;;;;;;1.27;0.63;;;;;;;;;;5027345;28;20112;-87
2023/10/08 06:55:47;;;;;;;0.77;0.77;;;;;;;;;;5021108;28;20506;-86
2023/10/08 06:58:16;;;;;;;1.85;0.50;;;;;;;;;;5015672;28;20046;-86
2023/10/08 07:00:47;;;;;;;0.70;0.60;;;;;;;;;;5011926;28;20422;-86
2023/10/08 07:03:17;;;;;;;0.55;0.45;;;;;;;;;;5025804;28;20054;-87
2023/10/08 07:05:59;;;;;;;0.63;0.60;;;;;;;;;;5017791;28;20395;-87
2023/10/08 07:08:31;;;;;;;2.28;0.60;;;;;;;;;;5018103;28;20099;-86
2023/10/08 07:11:11;;;;;;;0.90;0.60;;;;;;;;;;5010301;28;20042;-86
2023/10/08 07:13:40;;;;;;;0.70;0.70;;;;;;;;;;5011248;28;20049;-88
2023/10/08 07:16:11;;;;;;;0.30;0.30;;;;;;;;;;5008699;28;20049;-86
2023/10/08 07:18:39;;;;;;;0.30;0.30;;;;;;;;;;5006434;28;20049;-87
2023/10/08 07:21:12;;;;;;;0.22;0.22;;;;;;;;;;5032777;28;20050;-86
2023/10/08 07:26:35;;;;;;;0.95;0.40;;;;;;;;;;5023874;28;20050;-86
2023/10/08 07:29:08;;;;;;;0.10;0.10;;;;;;;;;;5006773;28;20060;-89
2023/10/08 07:31:36;;;;;;;0.20;0.20;;;;;;;;;;5027222;28;20150;-87
2023/10/08 07:34:26;;;;;;;0.20;0.20;;;;;;;;;;5010077;28;20050;-89
2023/10/08 07:36:52;;;;;;;0.30;0.30;;;;;;;;;;5023688;28;20047;-87
2023/10/08 07:39:33;;;;;;;0.30;0.30;;;;;;;;;;5025815;28;20104;-93
2023/10/08 07:42:05;;;;;;;0.20;0.20;;;;;;;;;;5010016;28;20048;-89
2023/10/08 07:44:35;;;;;;;0.10;0.10;;;;;;;;;;5006501;28;20053;-90
2023/10/08 07:47:11;;;;;;;0.25;0.10;;;;;;;;;;5011402;28;20133;-89
2023/10/08 07:49:39;;;;;;;0.73;0.20;;;;;;;;;;5009683;28;20049;-95
2023/10/08 07:52:06;;;;;;;0.20;0.20;;;;;;;;;;5013088;28;20041;-92
2023/10/08 07:54:36;;;;;;;0.20;0.20;;;;;;;;;;5006678;28;20049;-94
2023/10/08 07:57:11;;;;;;;0.17;0.15;;;;;;;;;;5006635;28;20128;-95
2023/10/08 07:59:41;;;;;;;0.10;0.10;;;;;;;;;;5017853;28;20107;-93
2023/10/08 08:02:12;;;;;;;0.08;0.08;;;;;;;;;;5009092;28;20100;-94
2023/10/08 08:04:41;;;;;;;0.25;0.13;;;;;;;;;;5012421;28;20057;-92
2023/10/08 08:07:15;;;;;;;0.13;0.13;;;;;;;;;;5012412;28;20042;-93
2023/10/08 08:09:59;;;;;;;1.20;0.20;;;;;;;;;;5009841;28;20137;-92
2023/10/08 08:12:35;;;;;;;0.30;0.30;;;;;;;;;;5010039;28;20033;-94
2023/10/08 08:15:14;;;;;;;1.23;0.63;;;;;;;;;;5009353;28;20053;-92
2023/10/08 08:17:42;;;;;;;0.20;0.20;;;;;;;;;;5012519;28;20133;-93
2023/10/08 08:20:21;;;;;;;1.13;0.40;;;;;;;;;;5014042;28;20069;-94
2023/10/08 08:22:54;;;;;;;0.50;0.50;;;;;;;;;;5007273;28;20065;-94
2023/10/08 08:25:34;;;;;;;0.32;0.32;;;;;;;;;;5015751;28;20073;-92
2023/10/08 08:28:06;;;;;;;0.40;0.40;;;;;;;;;;5010091;28;20046;-93
2023/10/08 08:30:36;;;;;;;0.32;0.32;;;;;;;;;;5006351;28;20077;-95
2023/10/08 08:33:10;;;;;;;1.67;0.40;;;;;;;;;;5025588;28;20053;-94
2023/10/08 08:35:39;;;;;;;0.20;0.20;;;;;;;;;;5037396;28;20560;-94
2023/10/08 08:38:12;;;;;;;0.65;0.28;;;;;;;;;;5020548;28;20136;-96
2023/10/08 08:40:40;;;;;;;0.32;0.00;;;;;;;;;;5014149;28;20050;-96
2023/10/08 08:43:09;;;;;;;0.20;0.10;;;;;;;;;;5016230;28;20046;-94
2023/10/08 08:45:40;;;;;;;0.03;0.03;;;;;;;;;;5022669;28;20057;-94
2023/10/08 08:48:08;;;;;;;0.10;0.10;;;;;;;;;;5008848;28;20493;-94
2023/10/08 08:50:37;;;;;;;0.17;0.17;;;;;;;;;;5011537;28;20057;-95
2023/10/08 08:53:04;;;;;;;0.25;0.13;;;;;;;;;;5019504;28;20076;-90
2023/10/08 08:55:32;;;;;;;0.20;0.20;;;;;;;;;;5010940;28;20045;-92
2023/10/08 08:58:00;;;;;;;0.10;0.10;;;;;;;;;;5009089;28;20053;-92
2023/10/08 09:00:29;;;;;;;0.52;0.10;;;;;;;;;;5008352;28;20049;-89
2023/10/08 09:02:56;;;;;;;0.10;0.10;;;;;;;;;;5016058;28;20053;-86
2023/10/08 09:08:05;;;;;;;0.70;0.22;;;;;;;;;;5027521;28;20136;-90
2023/10/08 09:10:56;;;;;;;0.10;0.10;;;;;;;;;;5009158;28;20486;-87
2023/10/08 09:13:22;;;;;;;0.40;0.40;;;;;;;;;;5022691;28;20057;-89
2023/10/08 09:15:50;;;;;;;0.57;0.30;;;;;;;;;;5007917;28;20111;-89
2023/10/08 09:18:23;;;;;;;1.00;0.60;;;;;;;;;;5009037;28;20068;-89
2023/10/08 09:20:50;;;;;;;0.50;0.40;;;;;;;;;;5008194;28;20057;-89
2023/10/08 09:23:21;;;;;;;0.55;0.40;;;;;;;;;;5008185;28;20056;-88
2023/10/08 09:25:49;;;;;;;1.33;0.85;;;;;;;;;;5010039;28;20056;-89
2023/10/08 09:28:18;;;;;;;3.10;2.75;;;;;;;;;;5006831;28;20129;-87
2023/10/08 09:30:45;;;;;;;2.05;1.60;;;;;;;;;;5008301;28;20132;-89
2023/10/08 09:33:13;;;;;;;1.80;1.80;;;;;;;;;;5007966;28;20148;-88
2023/10/08 09:35:43;;;;;;;5.07;4.63;;;;;;;;;;5004787;28;20510;-87
2023/10/08 09:38:15;;;;;;;2.08;1.83;;;;;;;;;;5011833;28;20143;-89
2023/10/08 09:40:46;;;;;;;3.08;2.60;;;;;;;;;;5008458;28;20050;-89
2023/10/08 09:43:15;;;;;;;0.80;0.80;;;;;;;;;;5017457;28;20115;-89
2023/10/08 09:46:03;;;;;;;1.80;1.25;;;;;;;;;;5011634;28;20054;-90
2023/10/08 09:48:34;;;;;;;2.30;1.00;;;;;;;;;;5013575;28;20060;-89
2023/10/08 09:51:06;;;;;;;1.40;1.30;;;;;;;;;;5009747;28;20050;-90
2023/10/08 09:53:54;;;;;;;0.70;0.70;;;;;;;;;;5006755;28;20050;-89
2023/10/08 09:56:23;;;;;;;1.85;1.05;;;;;;;;;;5008212;28;20457;-89
2023/10/08 09:58:51;;;;;;;1.50;1.15;;;;;;;;;;5014356;28;20054;-89
2023/10/08 10:01:19;;;;;;;1.50;1.40;;;;;;;;;;5003061;28;20066;-90
2023/10/08 10:03:47;;;;;;;1.42;1.25;;;;;;;;;;5002283;28;20050;-88
2023/10/08 10:06:17;;;;;;;1.88;1.77;;;;;;;;;;5003426;28;20101;-87
2023/10/08 10:08:45;;;;;;;1.13;1.02;;;;;;;;;;5012995;28;20450;-89
2023/10/08 10:11:12;;;;;;;0.80;0.80;;;;;;;;;;5004206;28;20407;-90
2023/10/08 10:13:48;;;;;;;1.52;1.05;;;;;;;;;;5004284;28;20685;-90
2023/10/08 10:16:21;;;;;;;2.08;0.90;;;;;;;;;;5002679;28;20046;-89
2023/10/08 10:18:49;;;;;;;1.38;1.30;;;;;;;;;;5000974;28;20121;-91
2023/10/08 10:21:17;;;;;;;1.30;1.20;;;;;;;;;;5002859;28;20108;-90
2023/10/08 10:23:50;;;;;;;1.38;0.80;;;;;;;;;;5004159;28;20073;-91
2023/10/08 10:26:30;;;;;;;2.03;1.13;;;;;;;;;;5001995;28;20050;-90
2023/10/08 10:29:15;;;;;;;3.47;0.90;;;;;;;;;;5004996;28;20061;-90
2023/10/08 10:32:05;;;;;;;2.88;1.10;;;;;;;;;;5000764;28;20046;-91
2023/10/08 10:34:34;;;;;;;0.82;0.82;;;;;;;;;;5000753;28;20054;-91
2023/10/08 10:37:20;;;;;;;2.35;1.00;;;;;;;;;;5001093;28;20430;-92
2023/10/08 10:39:53;;;;;;;0.80;0.80;;;;;;;;;;5006969;28;20061;-91
2023/10/08 10:42:20;;;;;;;1.08;0.70;;;;;;;;;;5004015;28;20380;-90
2023/10/08 10:44:53;;;;;;;1.50;1.00;;;;;;;;;;5005679;28;20065;-90
2023/10/08 10:52:31;;;;;;;1.20;0.70;;;;;;;;;;5002838;28;20042;-90
2023/10/08 10:55:00;;;;;;;1.40;1.30;;;;;;;;;;5004950;28;20062;-91
2023/10/08 10:57:35;;;;;;;3.33;1.25;;;;;;;;;;5001955;28;20046;-92
2023/10/08 11:00:18;;;;;;;1.25;1.00;;;;;;;;;;5012809;28;20486;-93
2023/10/08 11:02:48;;;;;;;1.30;1.00;;;;;;;;;;5004759;28;20055;-93
2023/10/08 11:05:19;;;;;;;3.28;1.02;;;;;;;;;;5005678;28;20309;-93
2023/10/08 11:07:50;;;;;;;2.97;1.20;;;;;;;;;;5007262;28;20054;-92
2023/10/08 11:10:17;;;;;;;1.92;1.30;;;;;;;;;;5005391;28;20077;-92
2023/10/08 11:12:47;;;;;;;1.30;1.20;;;;;;;;;;5003939;28;20042;-92
2023/10/08 11:15:16;;;;;;;1.20;1.10;;;;;;;;;;5005879;28;20567;-92
2023/10/08 11:17:47;;;;;;;1.20;1.10;;;;;;;;;;5009968;28;20050;-93
2023/10/08 11:20:27;;;;;;;2.88;1.10;;;;;;;;;;5010078;28;20050;-93
2023/10/08 11:23:17;;;;;;;1.05;1.05;;;;;;;;;;5014905;28;20065;-94
2023/10/08 11:26:02;;;;;;;1.55;1.45;;;;;;;;;;5021924;28;20072;-95
2023/10/08 11:28:33;;;;;;;2.28;2.08;;;;;;;;;;5026775;28;20052;-93
2023/10/08 11:31:08;;;;;;;2.88;2.20;;;;;;;;;;5013051;28;20093;-94
2023/10/08 11:33:36;;;;;;;3.47;2.03;;;;;;;;;;5013731;28;20055;-95
2023/10/08 11:36:18;;;;;;;3.65;1.70;;;;;;;;;;5016200;28;20058;-93
2023/10/08 11:38:50;;;;;;;1.92;1.83;;;;;;;;;;5008111;28;20065;-94
2023/10/08 11:41:21;;;;;;;2.05;1.70;;;;;;;;;;5022332;28;20487;-94
2023/10/08 11:43:58;;;;;;;2.00;1.90;;;;;;;;;;5024402;28;20058;-95
2023/10/08 11:46:27;;;;;;;1.70;1.60;;;;;;;;;;5022577;28;20058;-95
2023/10/08 11:48:58;;;;;;;2.83;2.03;;;;;;;;;;5013489;28;20050;-96
2023/10/08 11:51:27;;;;;;;1.70;1.60;;;;;;;;;;5017219;28;20490;-95
2023/10/08 11:53:56;;;;;;;2.25;2.05;;;;;;;;;;5013166;28;20116;-95
2023/10/08 11:56:24;;;;;;;3.78;3.47;;;;;;;;;;5012993;28;20074;-96
2023/10/08 11:58:52;;;;;;;5.93;3.38;;;;;;;;;;5010365;28;20050;-96
2023/10/08 12:01:20;;;;;;;4.75;3.70;;;;;;;;;;5024283;28;20054;-96
2023/10/08 12:04:18;;;;;;;4.38;3.40;;;;;;;;;;5027810;28;20113;-94
2023/10/08 12:06:52;;;;;;;5.15;3.42;;;;;;;;;;5024334;28;20145;-96
2023/10/08 12:09:21;;;;;;;3.93;3.70;;;;;;;;;;5013526;28;20064;-96
2023/10/08 12:11:51;;;;;;;4.15;3.33;;;;;;;;;;5007957;28;20058;-96
2023/10/08 12:14:18;;;;;;;3.35;3.05;;;;;;;;;;5015702;28;20105;-96
2023/10/08 12:16:45;;;;;;;5.72;3.75;;;;;;;;;;5010113;28;20491;-96
2023/10/08 12:19:16;;;;;;;4.72;4.05;;;;;;;;;;5010952;28;20054;-94
2023/10/08 12:21:46;;;;;;;8.20;4.85;;;;;;;;;;5006802;28;20049;-96
2023/10/08 12:24:13;;;;;;;8.95;7.13;;;;;;;;;;5005405;28;20548;-95
2023/10/08 12:26:45;;;;;;;9.52;7.53;;;;;;;;;;5002938;28;20047;-95
2023/10/08 12:29:17;;;;;;;4.57;4.18;;;;;;;;;;5004139;28;20110;-96
2023/10/08 12:31:47;;;;;;;5.10;4.60;;;;;;;;;;5006154;28;20096;-95
2023/10/08 12:34:16;;;;;;;3.35;3.05;;;;;;;;;;5006408;28;20054;-96
2023/10/08 12:36:45;;;;;;;2.08;1.80;;;;;;;;;;5016291;28;20134;-94
2023/10/08 12:39:16;;;;;;;2.30;2.00;;;;;;;;;;5005825;28;20060;-95
2023/10/08 12:41:44;;;;;;;1.90;1.80;;;;;;;;;;5005588;28;20049;-95
2023/10/08 12:44:11;;;;;;;2.20;2.00;;;;;;;;;;5006059;28;20072;-95
2023/10/08 12:46:43;;;;;;;2.22;2.13;;;;;;;;;;5006239;28;20053;-95
2023/10/08 12:49:10;;;;;;;2.78;2.50;;;;;;;;;;5006610;28;20042;-94
2023/10/08 12:51:41;;;;;;;4.55;4.15;;;;;;;;;;5003198;28;20065;-96
2023/10/08 12:54:20;;;;;;;4.03;3.65;;;;;;;;;;5010945;28;20074;-94
2023/10/08 12:56:54;;;;;;;4.93;3.90;;;;;;;;;;5007651;28;20054;-95
2023/10/08 12:59:21;;;;;;;6.18;3.60;;;;;;;;;;5006725;28;20054;-94
2023/10/08 13:01:55;;;;;;;3.60;3.17;;;;;;;;;;5006802;28;20066;-96
2023/10/08 13:04:27;;;;;;;3.13;2.90;;;;;;;;;;5013090;28;20069;-91
2023/10/08 13:06:57;;;;;;;5.32;4.75;;;;;;;;;;5008960;28;20075;-95
2023/10/08 13:09:25;;;;;;;3.30;2.90;;;;;;;;;;5005998;28;20109;-93
2023/10/08 13:11:52;;;;;;;2.75;2.55;;;;;;;;;;5001964;28;20050;-93
2023/10/08 13:14:22;;;;;;;2.80;2.60;;;;;;;;;;5004578;28;20495;-95
2023/10/08 13:16:53;;;;;;;2.33;2.22;;;;;;;;;;5008305;28;20053;-93
2023/10/08 13:19:23;;;;;;;2.83;2.30;;;;;;;;;;5004450;28;20050;-94
2023/10/08 13:21:52;;;;;;;2.45;2.25;;;;;;;;;;5005212;28;20081;-92
2023/10/08 13:24:21;;;;;;;2.80;2.60;;;;;;;;;;5013805;28;20066;-96
2023/10/08 13:26:51;;;;;;;2.75;2.40;;;;;;;;;;5005839;28;20141;-96
2023/10/08 13:29:19;;;;;;;2.70;2.17;;;;;;;;;;5004832;28;20137;-93
2023/10/08 13:31:46;;;;;;;2.40;2.20;;;;;;;;;;5005237;28;20546;-94
2023/10/08 13:34:16;;;;;;;2.67;2.47;;;;;;;;;;5005255;28;20104;-92
2023/10/08 13:36:46;;;;;;;2.80;2.22;;;;;;;;;;5007823;28;20057;-95
2023/10/08 13:39:23;;;;;;;2.70;2.50;;;;;;;;;;5009375;28;20070;-93
2023/10/08 13:41:52;;;;;;;3.33;2.30;;;;;;;;;;4997384;28;20058;-93
2023/10/08 13:44:28;;;;;;;3.00;2.22;;;;;;;;;;5004617;28;20510;-92
2023/10/08 13:46:58;;;;;;;2.47;2.28;;;;;;;;;;5005249;28;20140;-93
2023/10/08 13:49:29;;;;;;;2.00;1.90;;;;;;;;;;5001948;28;20050;-92
2023/10/08 13:51:57;;;;;;;2.13;2.00;;;;;;;;;;5001386;28;20148;-93
2023/10/08 13:54:29;;;;;;;2.08;1.90;;;;;;;;;;5003455;28;20050;-93
2023/10/08 13:56:57;;;;;;;2.10;2.00;;;;;;;;;;5012611;28;20050;-91
2023/10/08 13:59:26;;;;;;;3.15;2.00;;;;;;;;;;5004334;28;20053;-91
2023/10/08 14:01:55;;;;;;;2.00;1.90;;;;;;;;;;5003710;28;20556;-91
2023/10/08 14:04:38;;;;;;;1.98;1.77;;;;;;;;;;5004604;28;20388;-92
2023/10/08 14:07:05;;;;;;;2.58;2.38;;;;;;;;;;5012132;28;20061;-92
2023/10/08 14:09:36;;;;;;;2.20;2.00;;;;;;;;;;5001030;28;20112;-91
2023/10/08 14:12:07;;;;;;;2.20;2.10;;;;;;;;;;5001315;28;20077;-91
2023/10/08 14:14:35;;;;;;;2.42;2.20;;;;;;;;;;5004545;28;20085;-91
2023/10/08 14:17:05;;;;;;;3.75;2.55;;;;;;;;;;5004135;28;20054;-90
2023/10/08 14:19:42;;;;;;;2.47;2.00;;;;;;;;;;5004875;28;20108;-91
2023/10/08 14:22:13;;;;;;;2.15;2.05;;;;;;;;;;5003221;28;20050;-90
2023/10/08 14:24:44;;;;;;;4.15;2.80;;;;;;;;;;5000991;28;20073;-91
2023/10/08 14:27:14;;;;;;;2.97;2.78;;;;;;;;;;5001977;28;20047;-90
2023/10/08 14:29:44;;;;;;;3.35;2.67;;;;;;;;;;5004142;28;20495;-91
2023/10/08 14:32:12;;;;;;;2.97;2.78;;;;;;;;;;5004054;28;20129;-92
2023/10/08 14:43:15;;;;;;;3.85;3.05;;;;;;;;;;5008705;28;20046;-90
2023/10/08 14:45:46;;;;;;;3.17;2.97;;;;;;;;;;5004190;28;20105;-91
2023/10/08 14:48:14;;;;;;;2.88;2.65;;;;;;;;;;5014324;28;20050;-90
2023/10/08 14:50:41;;;;;;;3.35;3.03;;;;;;;;;;5010301;28;20085;-90
2023/10/08 14:53:10;;;;;;;3.00;2.80;;;;;;;;;;5005155;28;20077;-90
2023/10/08 14:55:38;;;;;;;2.50;2.40;;;;;;;;;;5007509;28;20124;-90
2023/10/08 14:58:10;;;;;;;2.80;2.60;;;;;;;;;;5015718;28;20053;-90
2023/10/08 15:00:38;;;;;;;3.33;3.03;;;;;;;;;;5007913;28;20490;-89
2023/10/08 15:03:08;;;;;;;2.72;2.63;;;;;;;;;;5010287;28;20120;-89
2023/10/08 15:05:36;;;;;;;2.58;2.20;;;;;;;;;;5007366;28;20115;-89
2023/10/08 15:08:09;;;;;;;2.85;2.65;;;;;;;;;;5012709;28;20533;-91
2023/10/08 15:10:38;;;;;;;3.05;1.98;;;;;;;;;;5010799;28;20053;-89
2023/10/08 15:13:06;;;;;;;2.53;2.30;;;;;;;;;;5010638;28;20045;-89
2023/10/08 15:15:39;;;;;;;2.35;2.20;;;;;;;;;;5010511;28;20057;-90
2023/10/08 15:18:07;;;;;;;;;;;;;;;;;;5011067;28;20050;-91
2023/10/08 15:20:35;;;;;;;2.25;1.50;;;;;;;;;;5010246;28;19964;-91
2023/10/08 15:23:03;;;;;;;1.98;1.45;;;;;;;;;;5018633;28;20053;-89
2023/10/08 15:25:30;;;;;;;1.90;1.80;;;;;;;;;;5018416;28;20049;-89
2023/10/08 15:27:57;;;;;;;2.38;1.70;;;;;;;;;;5027568;28;20049;-89
2023/10/08 15:30:25;;;;;;;1.98;1.50;;;;;;;;;;5017946;28;20053;-90
2023/10/08 15:32:54;;;;;;;1.58;1.48;;;;;;;;;;5018384;28;20100;-91
2023/10/08 15:35:24;;;;;;;2.95;1.73;;;;;;;;;;5027353;28;20120;-89
2023/10/08 15:37:52;;;;;;;1.25;1.20;;;;;;;;;;5018511;28;20512;-89
2023/10/08 15:40:20;;;;;;;1.80;1.70;;;;;;;;;;5027537;28;20632;-89
2023/10/08 15:42:52;;;;;;;1.50;1.40;;;;;;;;;;5027407;28;20060;-89
2023/10/08 15:45:20;;;;;;;2.28;1.80;;;;;;;;;;5033328;28;20468;-89
2023/10/08 15:47:49;;;;;;;2.92;1.85;;;;;;;;;;5012912;28;20072;-88
2023/10/08 15:50:20;;;;;;;1.63;1.52;;;;;;;;;;5008486;28;20096;-89
2023/10/08 15:52:48;;;;;;;1.80;1.70;;;;;;;;;;5006838;28;20050;-89
2023/10/08 15:55:16;;;;;;;2.70;2.20;;;;;;;;;;5007960;28;20046;-90
2023/10/08 15:57:43;;;;;;;2.35;2.15;;;;;;;;;;5009724;28;20126;-89
2023/10/08 16:00:11;;;;;;;6.82;2.33;;;;;;;;;;5008733;28;20108;-89
2023/10/08 16:02:38;;;;;;;2.40;2.08;;;;;;;;;;5005762;28;20062;-89
2023/10/08 16:05:07;;;;;;;1.88;1.67;;;;;;;;;;5006541;28;20461;-89